Benalla, Victoria

3:08 PM AEDT on November 28, 2014 (GMT +1100)
Benalla | Change Station
CLOSE
Current Station
Personal Weather Station
Location: Benalla, VIC
Elevation: 568 ft
Nearby Weather Stations

Elev 568 ft 36.56 °S, 146.00 °E | Updated 3 seconds ago

Clear
Clear
86.5 °F
Feels Like 85 °F
N
0.7
Wind Variable Wind from SSE
Gusts 2.0 mph

Today
High -- | Low -- °F
--% Chance of Precip.
Yesterday
High -- | Low -- °F
Precip. -- in
5:52 AM 8:15 PM
Waxing Crescent, 36% visible
Pressure 30.06 in
Visibility -9999.0 miles
Clouds
Heat Index 85 °F
Dew Point 54 °F
Humidity 33%
Rainfall 0.00 in
Snow Depth Not available.
UV Not available.
Pollen Not available.
Air Quality Not available.
Flu Activity Not available.
METAR YWGT 280300Z AUTO 05008KT //// // ////// 28/07 Q1018

More Conditions Fewer Conditions

Pressure 30.06 in
Visibility -9999.0 miles
Clouds
Heat Index 85 °F
Dew Point 54 °F
Humidity 33%
Rainfall 0.00 in
Snow Depth Not available.
UV Not available.
Pollen Not available.
Air Quality Not available.
Flu Activity Not available.
METAR YWGT 280300Z AUTO 05008KT //// // ////// 28/07 Q1018

More Conditions Fewer Conditions

10-Day Weather Forecast

Almanac

Astronomy

Nov. 28, 2014 Rise Set
Actual Time
Civil Twilight
Nautical Twilight
Astronomical Twilight
Moon
Length of Visible Light
Length of Day
Tomorrow will be .
, % of the Moon is Illuminated

Today's Extremes

Country Highs Country Lows

Community

WunderPhotos

Upload Photos

1,774,176 photos uploaded!

WunderBlogs® & News

Nearby

Air Quality

  Air Quality AQ Index Pollutant
Not available.

Snow Depth

Station Depth Elevation

Earthquake Activity

City Distance Mag. Time & Date
Minimum magnitude displayed is 2.5.

Coastal Water Temperatures

Place Temperature

Nearby Weather Stations